Flight Track Log - Related Links

Times and Time Zones

All times are in EDT time to prevent confusion due to time zone crossing. See the UAL135 flight status page for this flight to view local times or setup timezone preferences in your user account.


Time Position Orientation Groundspeed Altitude Reporting Facility
EDT Latitude Longitude Course Direction KTS MPH feet Rate Location/Type
Fri 04:30:37 AM 47.4380 8.5630 141° Southeast 192 221 2,600  Level FlightAware ADS-B
Fri 04:30:52 AM 47.4310 8.5800 121° Southeast 197 227 3,400 2,600 Climbing FlightAware ADS-B
Fri 04:31:07 AM 47.4330 8.6000 82° East 193 222 3,900 2,000 Climbing FlightAware ADS-B
Fri 04:31:22 AM 47.4430 8.6130 41° Northeast 190 219 4,400 1,920 Climbing FlightAware ADS-B
Fri 04:31:32 AM 47.4510 8.6160 14° North 190 219 4,700 1,200 Climbing FlightAware ADS-B
Fri 04:31:47 AM 47.4640 8.6080 337° Northwest 204 235 4,900 1,400 Climbing FlightAware ADS-B
Fri 04:32:02 AM 47.4710 8.5900 300° West 210 242 5,400 2,267 Climbing FlightAware ADS-B
Fri 04:32:32 AM 47.4630 8.5480 254° West 215 247 6,600 2,400 Climbing FlightAware ADS-B
Fri 04:32:57 AM 47.4530 8.5140 247° West 221 254 7,600 2,100 Climbing FlightAware ADS-B
Fri 04:33:12 AM 47.4420 8.4980 225° Southwest 236 272 8,000 1,800 Climbing FlightAware ADS-B
Fri 04:33:27 AM 47.4280 8.4840 214° Southwest 248 285 8,500 2,100 Climbing FlightAware ADS-B
Fri 04:33:52 AM 47.4030 8.4590 214° Southwest 269 310 9,400 2,057 Climbing FlightAware ADS-B
Fri 04:34:37 AM 47.3630 8.3970 226° Southwest 305 351 10,900 1,553 Climbing FlightAware ADS-B
Fri 04:35:17 AM 47.3280 8.3360 230° Southwest 347 399 11,600 1,875 Climbing FlightAware ADS-B
Fri 04:35:57 AM 47.3000 8.2460 245° Southwest 367 422 13,400 2,471 Climbing FlightAware ADS-B
Fri 04:36:42 AM 47.2850 8.1360 259° West 384 442 15,100 1,950 Climbing FlightAware ADS-B
Fri 04:37:17 AM 47.2880 8.0440 273° West 410 472 16,000 2,118 Climbing FlightAware ADS-B
Fri 04:38:07 AM 47.3080 7.8990 282° West 421 484 18,100 2,467 Climbing FlightAware ADS-B
Fri 04:38:47 AM 47.3250 7.7860 283° West 428 493 19,700 2,250 Climbing FlightAware ADS-B
Fri 04:39:27 AM 47.3410 7.6710 282° West 435 501 21,100 1,906 Climbing FlightAware ADS-B
Fri 04:40:12 AM 47.3600 7.5400 282° West 447 514 22,400 1,765 Climbing FlightAware ADS-B
Fri 04:40:52 AM 47.3770 7.4200 282° West 457 526 23,600 1,765 Climbing FlightAware ADS-B
Fri 04:41:37 AM 47.3970 7.2750 282° West 470 541 24,900 1,920 Climbing FlightAware ADS-B
Fri 04:42:07 AM 47.4100 7.1820 282° West 466 536 26,000 1,714 Climbing FlightAware ADS-B
Fri 04:42:47 AM 47.4270 7.0530 281° West 476 548 26,900 2,100 Climbing FlightAware ADS-B
Fri 04:43:27 AM 47.4440 6.9310 282° West 460 529 28,800 2,475 Climbing FlightAware ADS-B
Fri 04:44:07 AM 47.4610 6.8050 281° West 454 522 30,200 1,835 Climbing FlightAware ADS-B
Fri 04:44:52 AM 47.4800 6.6780 283° West 454 522 31,400 1,800 Climbing FlightAware ADS-B
Fri 04:45:37 AM 47.5150 6.5410 291° West 454 522 32,900 1,765 Climbing FlightAware ADS-B
Fri 04:46:17 AM 47.5500 6.4260 294° West 444 511 33,900 776 Climbing FlightAware ADS-B
Fri 04:47:02 AM 47.5880 6.3030 295° West 443 510 34,000  Climbing FlightAware ADS-B
Fri 04:47:37 AM 47.6190 6.2040 295° West 447 514 33,900 -71 Descending FlightAware ADS-B
Fri 04:48:27 AM 47.6620 6.0640 295° West 445 512 33,900  Level FlightAware ADS-B
Fri 04:49:02 AM 47.6880 5.9790 294° West 445 512 33,900 75 Level FlightAware ADS-B
Fri 04:49:47 AM 47.7300 5.8410 294° West 447 514 34,000  Climbing FlightAware ADS-B
Fri 04:50:32 AM 47.7650 5.7270 295° West 448 516 33,900 -75 Descending FlightAware ADS-B
Fri 04:51:07 AM 47.7990 5.6150 294° West 448 516 33,900  Level FlightAware ADS-B
Fri 04:51:52 AM 47.8360 5.4920 294° West 452 520 33,900  Level FlightAware ADS-B
Fri 04:52:14 AM 47.8586 5.4170 294° West 454 522 33,900  Level FlightAware ADS-B
Fri 04:53:13 AM 47.9118 5.2519 296° West 459 528 33,900  Level FlightAware ADS-B
Fri 04:53:49 AM 47.9599 5.1623 309° West 463 533 33,900  Level FlightAware ADS-B
Fri 04:54:26 AM 48.0133 5.0736 312° West 464 534 33,900  Level FlightAware ADS-B
Fri 04:55:16 AM 48.0856 4.9552 312° West 464 534 33,900  Level FlightAware ADS-B
Fri 04:55:49 AM 48.1326 4.8777 312° West 464 534 33,900  Level FlightAware ADS-B
Fri 04:56:37 AM 48.2012 4.7633 312° West 464 534 33,900  Level FlightAware ADS-B
Fri 04:57:32 AM 48.2660 4.6330 307° West 452 520 33,900  Level FlightAware ADS-B
Fri 04:58:02 AM 48.2770 4.5460 281° West 441 507 33,900  Level FlightAware ADS-B
Fri 04:58:18 AM 48.2769 4.4840 270° West 462 532 33,900  Level FlightAware ADS-B
Fri 04:58:34 AM 48.2810 4.4336 277° West 443 510 33,900  Level FlightAware ADS-B
Fri 04:59:37 AM 48.2980 4.2550 278° West 443 510 33,900  Level FlightAware ADS-B
Fri 05:00:17 AM 48.3120 4.1300 280° West 443 510 33,900  Level FlightAware ADS-B
Fri 05:01:02 AM 48.3250 4.0010 279° West 443 510 33,900  Level FlightAware ADS-B
Fri 05:01:37 AM 48.3370 3.8880 279° West 441 507 33,900  Level FlightAware ADS-B
Fri 05:01:50 AM 48.3416 3.8410 278° West 442 509 33,900  Level FlightAware ADS-B
Fri 05:02:22 AM 48.3512 3.7439 279° West 441 507 33,900  Level FlightAware ADS-B
Fri 05:02:52 AM 48.3602 3.6516 278° West 441 507 33,900  Level FlightAware ADS-B
Fri 05:03:23 AM 48.3691 3.5598 278° West 440 506 33,900  Level FlightAware ADS-B
Fri 05:03:54 AM 48.3782 3.4666 278° West 441 507 33,900  Level FlightAware ADS-B
Fri 05:04:27 AM 48.3870 3.3730 278° West 439 505 33,900  Level FlightAware ADS-B
Fri 05:04:48 AM 48.3936 3.3037 278° West 439 505 33,900  Level FlightAware ADS-B
Fri 05:05:22 AM 48.4034 3.2003 278° West 439 505 33,900  Level FlightAware ADS-B
Fri 05:05:46 AM 48.4107 3.1274 279° West 440 506 33,900  Level FlightAware ADS-B
Fri 05:06:10 AM 48.4206 3.0561 282° West 441 507 33,900  Level FlightAware ADS-B
Fri 05:06:56 AM 48.4446 2.9214 285° West 440 506 33,900  Level FlightAware ADS-B
Fri 05:07:26 AM 48.4619 2.8320 286° West 440 506 33,900  Level FlightAware ADS-B
Fri 05:07:56 AM 48.4794 2.7441 287° West 440 506 33,900  Level FlightAware ADS-B
Fri 05:08:26 AM 48.4964 2.6562 286° West 441 507 33,900  Level FlightAware ADS-B
Fri 05:08:56 AM 48.5137 2.5680 287° West 441 507 33,900  Level FlightAware ADS-B
Fri 05:09:42 AM 48.5397 2.4310 286° West 442 509 33,900  Level FlightAware ADS-B
Fri 05:10:13 AM 48.5571 2.3392 286° West 443 510 33,900  Level FlightAware ADS-B
Fri 05:10:44 AM 48.5743 2.2475 286° West 443 510 33,900  Level FlightAware ADS-B
Fri 05:11:15 AM 48.5914 2.1556 286° West 443 510 33,900 -1,579 Level FlightAware ADS-B
Fri 05:11:41 AM 48.6004 2.0896 286° West 466 536 32,400  Descending FlightAware UK
Fri 05:11:48 AM 48.6091 2.0596 286° West 443 510 33,900 2,195 Climbing FlightAware ADS-B
Fri 05:12:22 AM 48.6276 1.9584 285° West 443 510 33,900 -1,698 Level FlightAware ADS-B
Fri 05:12:41 AM 48.6331 1.9114 285° West 466 536 32,400  Descending FlightAware UK
Fri 05:12:54 AM 48.6452 1.8626 285° West 444 511 33,900 1,957 Climbing FlightAware ADS-B
Fri 05:13:27 AM 48.6635 1.7627 286° West 443 510 33,900  Level FlightAware ADS-B
Fri 05:13:58 AM 48.6802 1.6704 285° West 442 509 33,900 -1,837 Level FlightAware ADS-B
Fri 05:14:16 AM 48.6848 1.6261 285° West 470 541 32,400  Descending FlightAware UK
Fri 05:14:30 AM 48.6974 1.5749 285° West 442 509 33,900 2,000 Climbing FlightAware ADS-B
Fri 05:15:01 AM 48.7137 1.4836 285° West 441 507 33,900 -1,957 Level FlightAware ADS-B
Fri 05:15:16 AM 48.7168 1.4476 285° West 470 541 32,400 162 Descending FlightAware UK
Fri 05:15:38 AM 48.7329 1.3749 285° West 440 506 34,000  Climbing FlightAware ADS-B
Fri 05:16:10 AM 48.7454 1.2886 285° West 466 536 32,400  Descending FlightAware UK
Fri 05:16:18 AM 48.7540 1.2546 285° West 440 506 34,000  Climbing FlightAware ADS-B
Fri 05:16:34 AM 48.7582 1.2178 285° West 464 534 32,400 -2,824 Descending FlightAware UK
Fri 05:16:52 AM 48.7675 1.1652 285° West 462 532 32,400 2,743 Level FlightAware UK
Fri 05:17:09 AM 48.7808 1.1035 285° West 440 506 34,000  Climbing FlightAware ADS-B
Fri 05:17:28 AM 48.7862 1.0586 285° West 468 539 32,400 -194 Descending FlightAware UK
Fri 05:17:40 AM 48.7968 1.0113 285° West 440 506 33,900  Climbing FlightAware ADS-B
Fri 05:18:04 AM 48.8045 0.9516 285° West 468 539 32,400  Descending FlightAware UK
Fri 05:18:10 AM 48.8121 0.9222 285° West 440 506 33,900  Climbing FlightAware ADS-B
Fri 05:18:28 AM 48.8170 0.8803 285° West 468 539 32,400 -2,500 Descending FlightAware UK
Fri 05:18:46 AM 48.8264 0.8268 285° West 468 539 32,400 4,000 Level FlightAware UK
Fri 05:18:52 AM 48.8338 0.7972 285° West 440 506 34,000  Climbing FlightAware ADS-B
Fri 05:19:22 AM 48.8450 0.7207 285° West 468 539 32,400  Descending FlightAware UK
Fri 05:19:39 AM 48.8573 0.6601 285° West 439 505 34,000  Climbing FlightAware ADS-B
Fri 05:19:58 AM 48.8632 0.6139 285° West 466 536 32,400  Descending FlightAware UK
Fri 05:20:09 AM 48.8725 0.5695 285° West 437 503 34,000  Climbing FlightAware ADS-B
Fri 05:20:28 AM 48.8784 0.5266 285° West 468 539 32,400 -162 Descending FlightAware UK
Fri 05:20:46 AM 48.8910 0.4608 285° West 436 502 33,900  Climbing FlightAware ADS-B
Fri 05:21:10 AM 48.8995 0.4031 285° West 464 534 32,400 167 Descending FlightAware UK
Fri 05:21:22 AM 48.9089 0.3526 285° West 435 501 34,000 2,087 Climbing FlightAware ADS-B
Fri 05:21:56 AM 48.9255 0.2531 284° West 434 499 34,000 -1,778 Level FlightAware ADS-B
Fri 05:22:16 AM 48.9320 0.2087 284° West 470 541 32,400 -158 Descending FlightAware UK
Fri 05:22:34 AM 48.9442 0.1411 284° West 434 499 33,900  Climbing FlightAware ADS-B
Fri 05:22:51 AM 48.9484 0.1026 284° West 468 539 32,400 -2,195 Descending FlightAware UK
Fri 05:23:15 AM 48.9601 0.0319 284° West 468 539 32,400 2,667 Level FlightAware UK
Fri 05:23:27 AM 48.9694 -0.0143 284° West 430 495 34,000  Climbing FlightAware ADS-B
Fri 05:23:45 AM 48.9747 -0.0562 284° West 466 536 32,400  Descending FlightAware UK
Fri 05:23:58 AM 48.9842 -0.1036 284° West 429 494 34,000  Climbing FlightAware ADS-B
Fri 05:24:15 AM 48.9896 -0.1437 284° West 464 534 32,400  Descending FlightAware UK
Fri 05:24:39 AM 49.0037 -0.2236 284° West 427 491 34,000  Climbing FlightAware ADS-B
Fri 05:24:57 AM 49.0097 -0.2660 284° West 460 529 32,400  Descending FlightAware UK
Fri 05:25:27 AM 49.0250 -0.3580 284° West 427 491 34,000  Climbing FlightAware ADS-B
Fri 05:25:51 AM 49.0351 -0.4231 284° West 460 529 32,400 -2,286 Descending FlightAware UK
Fri 05:26:09 AM 49.0435 -0.4756 284° West 460 529 32,400 4,571 Level FlightAware UK
Fri 05:26:12 AM 49.0460 -0.4890 284° West 427 491 34,000  Climbing FlightAware ADS-B
Fri 05:26:33 AM 49.0546 -0.5456 284° West 460 529 32,400  Descending FlightAware UK
Fri 05:26:52 AM 49.0640 -0.6010 284° West 426 490 34,000  Climbing FlightAware ADS-B
Fri 05:27:21 AM 49.0767 -0.6849 284° West 462 532 32,400  Descending FlightAware UK
Fri 05:27:37 AM 49.0850 -0.7390 284° West 426 490 34,000  Climbing FlightAware ADS-B
Fri 05:28:09 AM 49.0984 -0.8253 284° West 464 534 32,400  Descending FlightAware UK
Fri 05:28:17 AM 49.1020 -0.8490 284° West 427 491 34,000  Climbing FlightAware ADS-B
Fri 05:28:33 AM 49.1094 -0.8957 284° West 464 534 32,400 -2,824 Descending FlightAware UK
Fri 05:28:51 AM 49.1177 -0.9485 284° West 464 534 32,400 4,000 Level FlightAware UK
Fri 05:28:57 AM 49.1210 -0.9700 284° West 427 491 34,000  Climbing FlightAware ADS-B
Fri 05:29:15 AM 49.1285 -1.0182 284° West 468 539 32,400 -2,667 Descending FlightAware UK
Fri 05:29:33 AM 49.1366 -1.0710 283° West 466 536 32,400 3,556 Level FlightAware UK
Fri 05:29:42 AM 49.1410 -1.0970 283° West 427 491 34,000  Climbing FlightAware ADS-B
Fri 05:29:57 AM 49.1475 -1.1413 283° West 466 536 32,400 -2,909 Descending FlightAware UK
Fri 05:30:15 AM 49.1555 -1.1934 283° West 468 539 32,400 3,840 Level FlightAware UK
Fri 05:30:22 AM 49.1580 -1.2140 283° West 425 489 34,000  Climbing FlightAware ADS-B
Fri 05:30:44 AM 49.1689 -1.2805 283° West 466 536 32,400  Descending FlightAware UK
Fri 05:31:07 AM 49.1780 -1.3440 283° West 423 487 34,000 1,524 Climbing FlightAware ADS-B
Fri 05:31:47 AM 49.1940 -1.4540 283° West 422 486 34,000 -1,745 Level FlightAware ADS-B
Fri 05:32:02 AM 49.2035 -1.5078 283° West 464 534 32,400  Descending FlightAware UK
Fri 05:32:32 AM 49.2150 -1.5910 283° West 421 484 34,000 1,600 Climbing FlightAware ADS-B
Fri 05:33:02 AM 49.2270 -1.6700 283° West 421 484 34,000 -1,600 Level FlightAware ADS-B
Fri 05:33:32 AM 49.2427 -1.7697 283° West 462 532 32,400  Descending FlightAware UK
Fri 05:33:52 AM 49.2470 -1.8110 283° West 421 484 34,000  Climbing FlightAware ADS-B
Fri 05:34:08 AM 49.2580 -1.8743 283° West 462 532 32,400 -2,824 Descending FlightAware UK
Fri 05:34:26 AM 49.2657 -1.9270 283° West 462 532 32,400 3,310 Level FlightAware UK
Fri 05:34:37 AM 49.2670 -1.9500 283° West 421 484 34,000  Climbing FlightAware ADS-B
Fri 05:34:56 AM 49.2789 -2.0150 283° West 462 532 32,400  Descending FlightAware UK
Fri 05:35:02 AM 49.2780 -2.0220 283° West 423 487 34,000 1,882 Climbing FlightAware ADS-B
Fri 05:35:47 AM 49.2990 -2.1720 282° West 423 487 34,000 -1,600 Level FlightAware ADS-B
Fri 05:36:02 AM 49.3063 -2.2074 282° West 462 532 32,400 -2,462 Descending FlightAware UK
Fri 05:36:26 AM 49.3165 -2.2777 282° West 464 534 32,400 3,840 Level FlightAware UK
Fri 05:36:27 AM 49.3150 -2.2820 282° West 423 487 34,000  Climbing FlightAware ADS-B
Fri 05:36:44 AM 49.3240 -2.3305 282° West 464 534 32,400 -2,743 Descending FlightAware UK
Fri 05:37:02 AM 49.3317 -2.3837 282° West 466 536 32,400 4,174 Level FlightAware UK
Fri 05:37:07 AM 49.3310 -2.3970 282° West 422 486 34,000 1,920 Climbing FlightAware ADS-B
Fri 05:37:52 AM 49.3500 -2.5300 282° West 422 486 34,000 -1,143 Level FlightAware ADS-B
Fri 05:38:31 AM 49.3683 -2.6476 282° West 464 534 32,400  Descending FlightAware UK
Fri 05:38:32 AM 49.3660 -2.6500 282° West 422 486 34,000  Climbing FlightAware ADS-B
Fri 05:39:01 AM 49.3809 -2.7356 282° West 464 534 32,400  Descending FlightAware UK
Fri 05:39:12 AM 49.3820 -2.7660 282° West 422 486 34,000  Climbing FlightAware ADS-B
Fri 05:39:31 AM 49.3931 -2.8237 282° West 464 534 32,400 -2,595 Descending FlightAware UK
Fri 05:39:49 AM 49.4004 -2.8767 282° West 464 534 32,400 3,692 Level FlightAware UK
Fri 05:39:57 AM 49.4000 -2.8970 282° West 422 486 34,000  Climbing FlightAware ADS-B
Fri 05:40:25 AM 49.4148 -2.9819 282° West 464 534 32,400  Descending FlightAware UK
Fri 05:40:37 AM 49.4160 -3.0160 282° West 423 487 34,000  Climbing FlightAware ADS-B
Fri 05:40:55 AM 49.4267 -3.0701 282° West 464 534 32,400 -2,286 Descending FlightAware UK
Fri 05:41:19 AM 49.4363 -3.1405 282° West 466 536 32,400 3,556 Level FlightAware UK
Fri 05:41:22 AM 49.4340 -3.1500 282° West 422 486 34,000  Climbing FlightAware ADS-B
Fri 05:41:37 AM 49.4435 -3.1933 282° West 464 534 32,400  Descending FlightAware UK
Fri 05:42:02 AM 49.4500 -3.2660 282° West 422 486 34,000  Climbing FlightAware ADS-B
Fri 05:42:19 AM 49.4599 -3.3162 282° West 466 536 32,400 -2,743 Descending FlightAware UK
Fri 05:42:37 AM 49.4669 -3.3692 282° West 468 539 32,400 3,429 Level FlightAware UK
Fri 05:42:47 AM 49.4670 -3.3970 282° West 422 486 34,000  Climbing FlightAware ADS-B
Fri 05:43:19 AM 49.4831 -3.4918 282° West 466 536 32,400  Descending FlightAware UK
Fri 05:43:27 AM 49.4820 -3.5120 282° West 421 484 34,000  Climbing FlightAware ADS-B
Fri 05:43:55 AM 49.4997 -3.5960 282° West 466 536 32,400  Descending FlightAware UK
Fri 05:44:07 AM 49.5020 -3.6290 282° West 418 481 34,000  Climbing FlightAware ADS-B
Fri 05:44:31 AM 49.5200 -3.6987 282° West 466 536 32,400  Descending FlightAware UK
Fri 05:44:52 AM 49.5270 -3.7610 282° West 419 482 34,000 1,574 Climbing FlightAware ADS-B
Fri 05:45:32 AM 49.5470 -3.8730 285° West 416 479 34,000 -1,524 Level FlightAware ADS-B
Fri 05:45:55 AM 49.5637 -3.9402 285° West 464 534 32,400 -2,341 Descending FlightAware UK
Fri 05:46:13 AM 49.5727 -3.9920 285° West 462 532 32,400 4,364 Level FlightAware UK
Fri 05:46:17 AM 49.5700 -4.0050 285° West 417 480 34,000  Climbing FlightAware ADS-B
Fri 05:46:37 AM 49.5847 -4.0611 285° West 466 536 32,400  Descending FlightAware UK
Fri 05:47:07 AM 49.5950 -4.1510 285° West 419 482 34,000 1,371 Climbing FlightAware ADS-B
Fri 05:47:47 AM 49.6150 -4.2640 285° West 425 489 34,000 -1,247 Level FlightAware ADS-B
Fri 05:48:24 AM 49.6394 -4.3763 285° West 478 550 32,400  Descending FlightAware UK
Fri 05:48:27 AM 49.6360 -4.3820 285° West 432 497 34,000  Climbing FlightAware ADS-B
Fri 05:48:54 AM 49.6554 -4.4657 285° West 482 555 32,400  Descending FlightAware UK
Fri 05:49:17 AM 49.6610 -4.5210 286° West 434 499 34,000  Climbing FlightAware ADS-B
Fri 05:49:18 AM 49.6683 -4.5372 286° West 484 557 32,400 -5,053 Descending FlightAware UK
Fri 05:49:36 AM 49.6778 -4.5909 286° West 482 555 32,400 2,824 Level FlightAware UK
Fri 05:49:52 AM 49.6790 -4.6270 286° West 434 499 34,000  Climbing FlightAware ADS-B
Fri 05:50:12 AM 49.6968 -4.6986 286° West 484 557 32,400  Descending FlightAware UK
Fri 05:50:32 AM 49.7000 -4.7450 286° West 434 499 34,000  Climbing FlightAware ADS-B
Fri 05:50:48 AM 49.7157 -4.8064 286° West 482 555 32,400 -2,400 Descending FlightAware UK
Fri 05:51:12 AM 49.7282 -4.8784 285° West 484 557 32,400  Level FlightAware UK
Fri 05:51:30 AM 49.7375 -4.9326 285° West 486 559 32,400 4,800 Level FlightAware UK
Fri 05:51:32 AM 49.7300 -4.9200 285° West 436 502 34,000  Climbing FlightAware ADS-B
Fri 05:51:54 AM 49.7501 -5.0042 285° West 486 559 32,400  Descending FlightAware UK
Fri 05:52:12 AM 49.7510 -5.0410 285° West 436 502 34,000  Climbing FlightAware ADS-B
Fri 05:52:30 AM 49.7686 -5.1128 285° West 484 557 32,400  Descending FlightAware UK
Fri 05:52:52 AM 49.7720 -5.1630 285° West 437 503 34,000 1,684 Climbing FlightAware ADS-B
Fri 05:53:27 AM 49.7900 -5.2710 285° West 438 504 34,000 -1,920 Level FlightAware ADS-B
Fri 05:53:42 AM 49.8055 -5.3306 285° West 484 557 32,400 -2,909 Descending FlightAware UK
Fri 05:54:00 AM 49.8147 -5.3852 285° West 486 559 32,400 3,200 Level FlightAware UK
Fri 05:54:12 AM 49.8130 -5.4040 285° West 437 503 34,000  Climbing FlightAware ADS-B
Fri 05:54:30 AM 49.8302 -5.4762 285° West 486 559 32,400 -2,667 Descending FlightAware UK
Fri 05:54:48 AM 49.8394 -5.5309 285° West 486 559 32,400 3,000 Level FlightAware UK
Fri 05:55:02 AM 49.8380 -5.5560 285° West 437 503 34,000  Climbing FlightAware ADS-B
Fri 05:55:18 AM 49.8544 -5.6220 285° West 488 562 32,400  Descending FlightAware UK
Fri 05:55:32 AM 49.8530 -5.6450 285° West 436 502 34,000  Climbing FlightAware ADS-B
Fri 05:55:36 AM 49.8635 -5.6766 285° West 486 559 32,400 -6,000 Descending FlightAware UK
Fri 05:55:48 AM 49.8695 -5.7131 285° West 486 559 32,400  Level FlightAware UK
Fri 05:56:06 AM 49.8785 -5.7677 284° West 484 557 32,400 2,824 Level FlightAware UK
Fri 05:56:22 AM 49.8810 -5.8120 284° West 438 504 34,000  Climbing FlightAware ADS-B
Fri 05:56:42 AM 49.8964 -5.8773 284° West 484 557 32,400 -2,526 Descending FlightAware UK
Fri 05:57:00 AM 49.9053 -5.9315 284° West 486 559 32,400 3,840 Level FlightAware UK
Fri 05:57:07 AM 49.9030 -5.9510 284° West 439 505 34,000  Climbing FlightAware ADS-B
Fri 05:57:24 AM 49.9174 -6.0047 284° West 486 559 32,400 -2,743 Descending FlightAware UK
Fri 05:57:42 AM 49.9264 -6.0596 284° West 486 559 32,400 4,174 Level FlightAware UK
Fri 05:57:47 AM 49.9230 -6.0730 284° West 440 506 34,000  Climbing FlightAware ADS-B
Fri 05:58:06 AM 49.9382 -6.1330 284° West 486 559 32,400 -2,595 Descending FlightAware UK
Fri 05:58:24 AM 49.9469 -6.1881 284° West 486 559 32,400 3,692 Level FlightAware UK
Fri 05:58:32 AM 49.9450 -6.2070 284° West 439 505 34,000  Climbing FlightAware ADS-B
Fri 05:58:48 AM 49.9587 -6.2615 284° West 486 559 32,400 -2,824 Descending FlightAware UK
Fri 05:59:06 AM 49.9674 -6.3166 284° West 488 562 32,400 4,000 Level FlightAware UK
Fri 05:59:12 AM 49.9650 -6.3320 284° West 439 505 34,000  Climbing FlightAware ADS-B
Fri 05:59:30 AM 49.9791 -6.3899 284° West 486 559 32,400 -2,667 Descending FlightAware UK
Fri 05:59:48 AM 49.9878 -6.4450 284° West 486 559 32,400 4,364 Level FlightAware UK
Fri 05:59:52 AM 49.9840 -6.4500 284° West 439 505 34,000  Climbing FlightAware ADS-B
Fri 06:00:12 AM 49.9996 -6.5184 284° West 486 559 32,400 -2,526 Descending FlightAware UK
Fri 06:00:30 AM 50.0082 -6.5734 284° West 486 559 32,400 3,840 Level FlightAware UK
Fri 06:00:37 AM 50.0060 -6.5890 284° West 439 505 34,000  Climbing FlightAware ADS-B
Fri 06:01:00 AM 50.0224 -6.6652 284° West 488 562 32,400  Descending FlightAware UK
Fri 06:01:17 AM 50.0250 -6.7120 284° West 438 504 34,000  Climbing FlightAware ADS-B
Fri 06:01:36 AM 50.0395 -6.7753 284° West 488 562 32,400 -2,595 Descending FlightAware UK
Fri 06:01:54 AM 50.0481 -6.8304 284° West 486 559 32,400 4,571 Level FlightAware UK
Fri 06:01:57 AM 50.0440 -6.8330 284° West 438 504 34,000  Climbing FlightAware ADS-B
Fri 06:02:12 AM 50.0565 -6.8854 284° West 486 559 32,400 -2,909 Descending FlightAware UK
Fri 06:02:30 AM 50.0650 -6.9404 283° West 486 559 32,400 3,200 Level FlightAware UK
Fri 06:02:42 AM 50.0650 -6.9710 283° West 437 503 34,000  Climbing FlightAware ADS-B
Fri 06:03:00 AM 50.0790 -7.0315 283° West 486 559 32,400 -2,667 Descending FlightAware UK
Fri 06:03:18 AM 50.0875 -7.0866 283° West 488 562 32,400 4,364 Level FlightAware UK
Fri 06:03:22 AM 50.0840 -7.0940 283° West 437 503 34,000  Climbing FlightAware ADS-B
Fri 06:03:42 AM 50.0985 -7.1601 283° West 488 562 32,400 -2,526 Descending FlightAware UK
Fri 06:04:00 AM 50.1069 -7.2152 283° West 486 559 32,400 3,840 Level FlightAware UK
Fri 06:04:07 AM 50.1050 -7.2320 283° West 437 503 34,000  Climbing FlightAware ADS-B
Fri 06:04:24 AM 50.1179 -7.2888 283° West 488 562 32,400 -2,743 Descending FlightAware UK
Fri 06:04:42 AM 50.1261 -7.3439 283° West 488 562 32,400 4,174 Level FlightAware UK
Fri 06:04:47 AM 50.1230 -7.3540 283° West 436 502 34,000  Climbing FlightAware ADS-B
Fri 06:05:06 AM 50.1370 -7.4174 283° West 488 562 32,400 -2,595 Descending FlightAware UK
Fri 06:05:24 AM 50.1452 -7.4724 283° West 488 562 32,400 3,692 Level FlightAware UK
Fri 06:05:32 AM 50.1430 -7.4900 283° West 436 502 34,000  Climbing FlightAware ADS-B
Fri 06:05:48 AM 50.1561 -7.5457 283° West 486 559 32,400 -2,824 Descending FlightAware UK
Fri 06:06:06 AM 50.1642 -7.6006 283° West 484 557 32,400 4,000 Level FlightAware UK
Fri 06:06:12 AM 50.1610 -7.6120 283° West 435 501 34,000  Climbing FlightAware ADS-B
Fri 06:06:30 AM 50.1750 -7.6740 283° West 484 557 32,400 -2,667 Descending FlightAware UK
Fri 06:06:48 AM 50.1830 -7.7291 283° West 484 557 32,400 4,364 Level FlightAware UK
Fri 06:06:52 AM 50.1800 -7.7360 283° West 437 503 34,000  Climbing FlightAware ADS-B
Fri 06:07:12 AM 50.1939 -7.8027 283° West 486 559 32,400 -2,526 Descending FlightAware UK
Fri 06:07:30 AM 50.2020 -7.8580 283° West 486 559 32,400 3,840 Level FlightAware UK
Fri 06:07:37 AM 50.2000 -7.8780 283° West 438 504 34,000  Climbing FlightAware ADS-B
Fri 06:07:54 AM 50.2126 -7.9318 283° West 486 559 32,400 -2,743 Descending FlightAware UK
Fri 06:08:12 AM 50.2206 -7.9873 283° West 484 557 32,400 4,174 Level FlightAware UK
Fri 06:08:17 AM 50.2170 -7.9930 283° West 439 505 34,000  Climbing FlightAware ADS-B
Fri 06:08:36 AM 50.2313 -8.0613 283° West 486 559 32,400 -2,595 Descending FlightAware UK
Fri 06:08:54 AM 50.2392 -8.1171 283° West 486 559 32,400 3,692 Level FlightAware UK
Fri 06:09:02 AM 50.2370 -8.1330 283° West 440 506 34,000  Climbing FlightAware ADS-B
Fri 06:09:18 AM 50.2496 -8.1908 283° West 490 564 32,400  Descending FlightAware UK
Fri 06:09:32 AM 50.2490 -8.2190 282° West 440 506 34,000  Climbing FlightAware ADS-B
Fri 06:09:36 AM 50.2574 -8.2467 282° West 490 564 32,400 -6,000 Descending FlightAware UK
Fri 06:09:48 AM 50.2627 -8.2839 282° West 490 564 32,400  Level FlightAware UK
Fri 06:10:06 AM 50.2705 -8.3399 282° West 490 564 32,400 2,824 Level FlightAware UK
Fri 06:10:22 AM 50.2710 -8.3750 282° West 437 503 34,000  Climbing FlightAware ADS-B
Fri 06:10:42 AM 50.2860 -8.4516 282° West 490 564 32,400 -2,526 Descending FlightAware UK
Fri 06:11:00 AM 50.2937 -8.5074 282° West 488 562 32,400 3,840 Level FlightAware UK
Fri 06:11:07 AM 50.2910 -8.5180 282° West 436 502 34,000  Climbing FlightAware ADS-B
Fri 06:11:24 AM 50.3041 -8.5815 282° West 488 562 32,400 -2,743 Descending FlightAware UK
Fri 06:11:42 AM 50.3118 -8.6370 282° West 490 564 32,400 4,174 Level FlightAware UK
Fri 06:11:47 AM 50.3080 -8.6390 282° West 435 501 34,000 1,000 Climbing FlightAware ADS-B
Fri 06:12:06 AM 50.3218 -8.7110 282° West 488 562 32,800 -1,459 Descending FlightAware UK
Fri 06:12:24 AM 50.3293 -8.7664 282° West 484 557 33,100 5,143 Climbing FlightAware UK
Fri 06:12:27 AM 50.3250 -8.7630 282° West 436 502 34,600 333 Climbing FlightAware ADS-B
Fri 06:12:42 AM 50.3368 -8.8220 282° West 486 559 33,200 -2,182 Descending FlightAware UK
Fri 06:13:00 AM 50.3445 -8.8777 282° West 488 562 33,400 3,800 Climbing FlightAware UK
Fri 06:13:12 AM 50.3440 -8.9040 282° West 441 507 35,100 1,200 Climbing FlightAware ADS-B
Fri 06:13:30 AM 50.3572 -8.9712 282° West 486 559 34,000 900 Descending FlightAware UK
Fri 06:13:52 AM 50.3610 -9.0280 282° West 437 503 35,700 1,935 Climbing FlightAware ADS-B
Fri 06:14:32 AM 50.3780 -9.1540 282° West 444 511 36,000 141 Climbing FlightAware ADS-B
Fri 06:15:17 AM 50.3970 -9.3010 282° West 441 507 35,900  Descending FlightAware ADS-B
Fri 06:16:02 AM 50.4150 -9.4390 282° West 429 494 36,000 71 Climbing FlightAware ADS-B
Fri 06:16:42 AM 50.4300 -9.5570 281° West 425 489 36,000  Level FlightAware ADS-B
Fri 06:17:22 AM 50.4460 -9.6790 282° West 425 489 36,000  Level FlightAware ADS-B
Fri 06:18:02 AM 50.4600 -9.7870 282° West 425 489 36,000  Level FlightAware ADS-B
Fri 06:18:42 AM 50.4720 -9.8900 280° West 425 489 36,000  Level FlightAware ADS-B
Fri 06:19:32 AM 50.4880 -10.0190 281° West 425 489 36,000  Level FlightAware ADS-B
Fri 06:20:12 AM 50.5010 -10.1220 281° West 425 489 36,000  Level FlightAware ADS-B
Fri 06:20:52 AM 50.5140 -10.2260 281° West 425 489 36,000  Level FlightAware ADS-B
Fri 06:21:37 AM 50.5410 -10.4420 281° West 427 491 36,000  Level FlightAware ADS-B
Fri 06:22:12 AM 50.5520 -10.5390 280° West 427 491 36,000  Level FlightAware ADS-B
Fri 06:23:02 AM 50.5670 -10.6690 280° West 427 491 36,000  Level FlightAware ADS-B
Fri 06:23:42 AM 50.5780 -10.7730 279° West 427 491 36,000  Level FlightAware ADS-B
Fri 06:24:27 AM 50.6030 -10.9690 281° West 427 491 36,000  Level FlightAware ADS-B
Fri 06:25:02 AM 50.6160 -11.0740 281° West 428 493 36,000  Level FlightAware ADS-B
Fri 06:25:42 AM 50.6270 -11.1800 279° West 428 493 36,000  Level FlightAware ADS-B
Fri 06:26:32 AM 50.6420 -11.3110 280° West 428 493 36,000  Level FlightAware ADS-B
Fri 06:27:12 AM 50.6540 -11.4160 280° West 428 493 36,000  Level FlightAware ADS-B
Fri 06:27:52 AM 50.6650 -11.5200 280° West 428 493 36,000  Level FlightAware ADS-B
Fri 06:28:32 AM 50.6770 -11.6250 280° West 428 493 36,000  Level FlightAware ADS-B
Fri 06:29:12 AM 50.6890 -11.7300 280° West 428 493 36,000  Level FlightAware ADS-B
Fri 06:30:02 AM 50.7030 -11.8600 280° West 428 493 36,000  Level FlightAware ADS-B
Fri 06:30:42 AM 50.7150 -11.9650 280° West 428 493 36,000  Level FlightAware ADS-B
Fri 06:31:22 AM 50.7270 -12.0700 280° West 428 493 36,000  Level FlightAware ADS-B
Fri 06:32:02 AM 50.7380 -12.1750 279° West 428 493 36,000  Level FlightAware ADS-B
Fri 06:32:42 AM 50.7500 -12.2790 280° West 428 493 36,000  Level FlightAware ADS-B
Fri 06:33:32 AM 50.7650 -12.4100 280° West 428 493 36,000  Level FlightAware ADS-B
Fri 06:34:12 AM 50.7760 -12.5150 279° West 428 493 36,000  Level FlightAware ADS-B
Fri 06:34:52 AM 50.7880 -12.6200 280° West 428 493 36,000  Level FlightAware ADS-B
Fri 06:37:00 AM 50.8343 -12.9943 281° West  Level Estimated
Fri 06:38:00 AM 50.8556 -13.1699 281° West  Level Estimated
Fri 06:39:00 AM 50.8766 -13.3458 281° West  Level Estimated
Fri 06:40:00 AM 50.8974 -13.5218 281° West  Level Estimated
Fri 06:41:00 AM 50.9179 -13.6979 281° West  Level Estimated
Fri 06:42:00 AM 50.9381 -13.8742 280° West  Level Estimated
Fri 06:43:00 AM 50.9581 -14.0507 280° West  Level Estimated
Fri 06:44:00 AM 50.9778 -14.2273 280° West  Level Estimated
Fri 06:45:00 AM 50.9973 -14.4041 280° West  Level Estimated
Fri 06:46:00 AM 51.0164 -14.5810 280° West  Level Estimated
Fri 06:47:00 AM 51.0354 -14.7580 280° West  Level Estimated
Fri 06:48:00 AM 51.0540 -14.9352 280° West  Level Estimated
Fri 06:49:00 AM 51.0724 -15.1126 279° West  Level Estimated
Fri 06:50:00 AM 51.0905 -15.2901 279° West  Level Estimated
Fri 06:51:00 AM 51.1083 -15.4677 279° West  Level Estimated
Fri 06:52:00 AM 51.1259 -15.6454 279° West  Level Estimated
Fri 06:53:00 AM 51.1431 -15.8233 279° West  Level Estimated
Fri 06:54:00 AM 51.1602 -16.0013 279° West  Level Estimated
Fri 06:55:00 AM 51.1769 -16.1795 279° West  Level Estimated
Fri 06:56:00 AM 51.1934 -16.3578 278° West  Level Estimated
Fri 06:57:00 AM 51.2096 -16.5362 278° West  Level Estimated
Fri 06:58:00 AM 51.2255 -16.7147 278° West  Level Estimated
Fri 06:59:00 AM 51.2412 -16.8934 278° West  Level Estimated
Fri 07:00:00 AM 51.2566 -17.0721 278° West  Level Estimated
Fri 07:01:00 AM 51.2717 -17.2510 278° West  Level Estimated
Fri 07:02:00 AM 51.2866 -17.4300 278° West  Level Estimated
Fri 07:03:00 AM 51.3012 -17.6091 277° West  Level Estimated
Fri 07:04:00 AM 51.3155 -17.7884 277° West  Level Estimated
Fri 07:05:00 AM 51.3295 -17.9677 277° West  Level Estimated
Fri 07:06:00 AM 51.3433 -18.1472 277° West  Level Estimated
Fri 07:07:00 AM 51.3567 -18.3268 277° West  Level Estimated
Fri 07:08:00 AM 51.3699 -18.5064 277° West  Level Estimated
Fri 07:09:00 AM 51.3829 -18.6862 277° West  Level Estimated
Fri 07:10:00 AM 51.3955 -18.8661 277° West  Level Estimated
Fri 07:11:00 AM 51.4083 -19.0515 276° West  Level Estimated
Fri 07:12:00 AM 51.4207 -19.2371 276° West  Level Estimated
Fri 07:13:00 AM 51.4329 -19.4228 276° West  Level Estimated
Fri 07:14:00 AM 51.4448 -19.6085 276° West  Level Estimated
Fri 07:15:00 AM 51.4564 -19.7944 276° West  Level Estimated
Fri 07:15:00 AM 50.0000 -20.0000 257° West 432 497 36,000  Level ETMS Enhanced Traffic Management System
Fri 07:16:00 AM 51.4677 -19.9803 276° West  Level Estimated
Fri 07:17:00 AM 51.4786 -20.1663 275° West  Level Estimated
Fri 07:18:00 AM 51.4893 -20.3525 275° West  Level Estimated
Fri 07:19:00 AM 51.4997 -20.5387 275° West  Level Estimated
Fri 07:20:00 AM 51.5098 -20.7250 275° West  Level Estimated
Fri 07:21:00 AM 49.7724 -21.4503 256° West 432 497 36,000  Level FlightAware Transoceanic
Fri 07:22:00 AM 49.7427 -21.6306 256° West 432 497 36,000  Level FlightAware Transoceanic
Fri 07:23:00 AM 49.7127 -21.8107 255° West 432 497 36,000  Level FlightAware Transoceanic
Fri 07:24:00 AM 49.6824 -21.9906 255° West 432 497 36,000  Level FlightAware Transoceanic
Fri 07:25:00 AM 49.6518 -22.1702 255° West 432 497 36,000  Level FlightAware Transoceanic
Fri 07:26:00 AM 49.6210 -22.3497 255° West 432 497 36,000  Level FlightAware Transoceanic
Fri 07:27:00 AM 49.5899 -22.5289 255° West 432 497 36,000  Level FlightAware Transoceanic
Fri 07:28:00 AM 49.5585 -22.7078 255° West 432 497 36,000  Level FlightAware Transoceanic
Fri 07:29:00 AM 49.5268 -22.8866 255° West 432 497 36,000  Level FlightAware Transoceanic
Fri 07:30:00 AM 49.4949 -23.0651 255° West 432 497 36,000  Level FlightAware Transoceanic
Fri 07:31:00 AM 49.4627 -23.2433 254° West 432 497 36,000  Level FlightAware Transoceanic
Fri 07:32:00 AM 49.4302 -23.4214 254° West 432 497 36,000  Level FlightAware Transoceanic
Fri 07:33:00 AM 49.3974 -23.5991 254° West 432 497 36,000  Level FlightAware Transoceanic
Fri 07:34:00 AM 49.3644 -23.7767 254° West 432 497 36,000  Level FlightAware Transoceanic
Fri 07:35:00 AM 49.3311 -23.9540 254° West 432 497 36,000  Level FlightAware Transoceanic
Fri 07:36:00 AM 49.2976 -24.1311 254° West 432 497 36,000  Level FlightAware Transoceanic
Fri 07:37:00 AM 49.2637 -24.3079 254° West 432 497 36,000  Level FlightAware Transoceanic
Fri 07:38:00 AM 49.2296 -24.4845 253° West 432 497 36,000  Level FlightAware Transoceanic
Fri 07:39:00 AM 49.1952 -24.6609 253° West 432 497 36,000  Level FlightAware Transoceanic
Fri 07:40:00 AM 49.1606 -24.8370 253° West 432 497 36,000  Level FlightAware Transoceanic
Fri 07:41:00 AM 49.1256 -25.0128 253° West 432 497 36,000  Level FlightAware Transoceanic
Fri 07:42:00 AM 49.0905 -25.1884 253° West 432 497 36,000  Level FlightAware Transoceanic
Fri 07:43:00 AM 49.0550 -25.3638 253° West 432 497 36,000  Level FlightAware Transoceanic
Fri 07:44:00 AM 49.0193 -25.5389 253° West 432 497 36,000  Level FlightAware Transoceanic
Fri 07:45:00 AM 48.9833 -25.7137 253° West 432 497 36,000  Level FlightAware Transoceanic
Fri 07:46:00 AM 48.9471 -25.8883 252° West 432 497 36,000  Level FlightAware Transoceanic
Fri 07:47:00 AM 48.9106 -26.0627 252° West 432 497 36,000  Level FlightAware Transoceanic
Fri 07:48:00 AM 48.8738 -26.2368 252° West 432 497 36,000  Level FlightAware Transoceanic
Fri 07:49:00 AM 48.8368 -26.4106 252° West 432 497 36,000  Level FlightAware Transoceanic
Fri 07:50:00 AM 48.7995 -26.5842 252° West 432 497 36,000  Level FlightAware Transoceanic
Fri 07:51:00 AM 48.7619 -26.7575 252° West 432 497 36,000  Level FlightAware Transoceanic
Fri 07:52:00 AM 48.7241 -26.9305 252° West 432 497 36,000  Level FlightAware Transoceanic
Fri 07:53:00 AM 48.6861 -27.1033 251° West 432 497 36,000  Level FlightAware Transoceanic
Fri 07:54:00 AM 48.6477 -27.2759 251° West 432 497 36,000  Level FlightAware Transoceanic
Fri 07:55:00 AM 48.6091 -27.4481 251° West 432 497 36,000  Level FlightAware Transoceanic
Fri 07:56:00 AM 48.5703 -27.6201 251° West 432 497 36,000  Level FlightAware Transoceanic
Fri 07:57:00 AM 48.5312 -27.7919 251° West 432 497 36,000  Level FlightAware Transoceanic
Fri 07:58:00 AM 48.4919 -27.9634 251° West 432 497 36,000  Level FlightAware Transoceanic
Fri 07:59:00 AM 48.4522 -28.1346 251° West 432 497 36,000  Level FlightAware Transoceanic
Fri 08:00:00 AM 48.4124 -28.3055 251° West 432 497 36,000  Level FlightAware Transoceanic
Fri 08:01:00 AM 48.3723 -28.4762 250° West 432 497 36,000  Level FlightAware Transoceanic
Fri 08:02:00 AM 48.3319 -28.6466 250° West 432 497 36,000  Level FlightAware Transoceanic
Fri 08:03:00 AM 48.2913 -28.8167 250° West 432 497 36,000  Level FlightAware Transoceanic
Fri 08:04:00 AM 48.2504 -28.9866 250° West 432 497 36,000  Level FlightAware Transoceanic
Fri 08:05:00 AM 48.2093 -29.1562 250° West 432 497 36,000  Level FlightAware Transoceanic
Fri 08:06:00 AM 48.1679 -29.3255 250° West 432 497 36,000  Level FlightAware Transoceanic
Fri 08:07:00 AM 48.1263 -29.4945 250° West 432 497 36,000  Level FlightAware Transoceanic
Fri 08:08:00 AM 48.0845 -29.6633 250° West 432 497 36,000  Level FlightAware Transoceanic
Fri 08:09:00 AM 48.0424 -29.8318 249° West 432 497 36,000  Level FlightAware Transoceanic
Fri 08:10:00 AM 48.0014 -29.9947 249° West  Level FlightAware Approximate
Fri 08:11:00 AM 47.9601 -30.1573 249° West  Level FlightAware Approximate
Fri 08:12:00 AM 47.9906 -30.1619 265° West  Level FlightAware Approximate
Fri 08:13:00 AM 47.9804 -30.3351 265° West  Level FlightAware Approximate
Fri 08:14:00 AM 47.9698 -30.5083 265° West  Level FlightAware Approximate
Fri 08:15:00 AM 47.9590 -30.6814 265° West  Level FlightAware Approximate
Fri 08:16:00 AM 47.9480 -30.8544 265° West  Level FlightAware Approximate
Fri 08:17:00 AM 47.9367 -31.0273 264° West  Level FlightAware Approximate
Fri 08:18:00 AM 47.9251 -31.2002 264° West  Level FlightAware Approximate
Fri 08:19:00 AM 47.9133 -31.3730 264° West  Level FlightAware Approximate
Fri 08:20:00 AM 47.9012 -31.5457 264° West  Level FlightAware Approximate
Fri 08:21:00 AM 47.8889 -31.7183 264° West  Level FlightAware Approximate
Fri 08:22:00 AM 47.8762 -31.8908 264° West  Level FlightAware Approximate
Fri 08:23:00 AM 47.8634 -32.0633 264° West  Level FlightAware Approximate
Fri 08:24:00 AM 47.8503 -32.2357 264° West  Level FlightAware Approximate
Fri 08:25:00 AM 47.8369 -32.4079 263° West  Level FlightAware Approximate
Fri 08:26:00 AM 47.8232 -32.5801 263° West  Level FlightAware Approximate
Fri 08:27:00 AM 47.8093 -32.7522 263° West  Level FlightAware Approximate
Fri 08:28:00 AM 47.7952 -32.9242 263° West  Level FlightAware Approximate
Fri 08:29:00 AM 47.7808 -33.0961 263° West  Level FlightAware Approximate
Fri 08:30:00 AM 47.7661 -33.2680 263° West  Level FlightAware Approximate
Fri 08:31:00 AM 47.7512 -33.4397 263° West  Level FlightAware Approximate
Fri 08:32:00 AM 47.7360 -33.6113 263° West  Level FlightAware Approximate
Fri 08:33:00 AM 47.7206 -33.7828 262° West  Level FlightAware Approximate
Fri 08:34:00 AM 47.7049 -33.9542 262° West  Level FlightAware Approximate
Fri 08:35:00 AM 47.6889 -34.1255 262° West  Level FlightAware Approximate
Fri 08:36:00 AM 47.6727 -34.2967 262° West  Level FlightAware Approximate
Fri 08:37:00 AM 47.6563 -34.4678 262° West  Level FlightAware Approximate
Fri 08:38:00 AM 47.6396 -34.6388 262° West  Level FlightAware Approximate
Fri 08:39:00 AM 47.6226 -34.8097 262° West  Level FlightAware Approximate
Fri 08:40:00 AM 47.6054 -34.9805 262° West  Level FlightAware Approximate
Fri 08:41:00 AM 47.5879 -35.1511 261° West  Level FlightAware Approximate
Fri 08:42:00 AM 47.5702 -35.3217 261° West  Level FlightAware Approximate
Fri 08:43:00 AM 47.5523 -35.4921 261° West  Level FlightAware Approximate
Fri 08:44:00 AM 47.5341 -35.6624 261° West  Level FlightAware Approximate
Fri 08:45:00 AM 47.5156 -35.8326 261° West  Level FlightAware Approximate
Fri 08:46:00 AM 47.4969 -36.0027 261° West  Level FlightAware Approximate
Fri 08:47:00 AM 47.4780 -36.1726 261° West  Level FlightAware Approximate
Fri 08:48:00 AM 47.4588 -36.3425 261° West  Level FlightAware Approximate
Fri 08:49:00 AM 47.4393 -36.5122 260° West  Level FlightAware Approximate
Fri 08:50:00 AM 47.4196 -36.6818 260° West  Level FlightAware Approximate
Fri 08:51:00 AM 47.3997 -36.8512 260° West  Level FlightAware Approximate
Fri 08:52:00 AM 47.3795 -37.0205 260° West  Level FlightAware Approximate
Fri 08:53:00 AM 47.3590 -37.1897 260° West  Level FlightAware Approximate
Fri 08:54:00 AM 47.3383 -37.3588 260° West  Level FlightAware Approximate
Fri 08:55:00 AM 47.3174 -37.5277 260° West  Level FlightAware Approximate
Fri 08:56:00 AM 47.2974 -37.6968 260° West  Level FlightAware Approximate
Fri 08:57:00 AM 47.2773 -37.8658 260° West  Level FlightAware Approximate
Fri 08:58:00 AM 47.2569 -38.0347 260° West  Level FlightAware Approximate
Fri 08:59:00 AM 47.2362 -38.2035 260° West  Level FlightAware Approximate
Fri 09:00:00 AM 47.2154 -38.3721 260° West  Level FlightAware Approximate
Fri 09:01:00 AM 47.1942 -38.5406 260° West  Level FlightAware Approximate
Fri 09:02:00 AM 47.1728 -38.7089 259° West  Level FlightAware Approximate
Fri 09:03:00 AM 47.1512 -38.8771 259° West  Level FlightAware Approximate
Fri 09:04:00 AM 47.1293 -39.0452 259° West  Level FlightAware Approximate
Fri 09:05:00 AM 47.1072 -39.2131 259° West  Level FlightAware Approximate
Fri 09:06:00 AM 47.0848 -39.3809 259° West  Level FlightAware Approximate
Fri 09:07:00 AM 47.0622 -39.5485 259° West  Level FlightAware Approximate
Fri 09:08:00 AM 47.0393 -39.7161 259° West  Level FlightAware Approximate
Fri 09:09:00 AM 47.0163 -39.8834 259° West  Level FlightAware Approximate
Fri 09:10:00 AM 46.9921 -40.0504 257° West  Level FlightAware Approximate
Fri 09:11:00 AM 46.9657 -40.2165 257° West  Level FlightAware Approximate
Fri 09:12:00 AM 46.9390 -40.3825 257° West  Level FlightAware Approximate
Fri 09:13:00 AM 46.9122 -40.5484 257° West  Level FlightAware Approximate
Fri 09:14:00 AM 46.8851 -40.7140 257° West  Level FlightAware Approximate
Fri 09:15:00 AM 46.8577 -40.8795 256° West  Level FlightAware Approximate
Fri 09:16:00 AM 46.8301 -41.0449 256° West  Level FlightAware Approximate
Fri 09:17:00 AM 46.8023 -41.2100 256° West  Level FlightAware Approximate
Fri 09:18:00 AM 46.7742 -41.3750 256° West  Level FlightAware Approximate
Fri 09:19:00 AM 46.7459 -41.5398 256° West  Level FlightAware Approximate
Fri 09:20:00 AM 46.7174 -41.7045 256° West  Level FlightAware Approximate
Fri 09:21:00 AM 46.6886 -41.8689 256° West  Level FlightAware Approximate
Fri 09:22:00 AM 46.6596 -42.0332 256° West  Level FlightAware Approximate
Fri 09:23:00 AM 46.6304 -42.1973 256° West  Level FlightAware Approximate
Fri 09:24:00 AM 46.6009 -42.3613 255° West  Level FlightAware Approximate
Fri 09:25:00 AM 46.5712 -42.5250 255° West  Level FlightAware Approximate
Fri 09:26:00 AM 46.5427 -42.6891 256° West  Level FlightAware Approximate
Fri 09:27:00 AM 46.5142 -42.8531 256° West  Level FlightAware Approximate
Fri 09:28:00 AM 46.4854 -43.0170 256° West  Level FlightAware Approximate
Fri 09:29:00 AM 46.4565 -43.1807 256° West  Level FlightAware Approximate
Fri 09:30:00 AM 46.4272 -43.3442 256° West  Level FlightAware Approximate
Fri 09:31:00 AM 46.3978 -43.5075 255° West  Level FlightAware Approximate
Fri 09:32:00 AM 46.3681 -43.6707 255° West  Level FlightAware Approximate
Fri 09:33:00 AM 46.3382 -43.8337 255° West  Level FlightAware Approximate
Fri 09:34:00 AM 46.3080 -43.9965 255° West  Level FlightAware Approximate
Fri 09:35:00 AM 46.2777 -44.1591 255° West  Level FlightAware Approximate
Fri 09:36:00 AM 46.2471 -44.3215 255° West  Level FlightAware Approximate
Fri 09:37:00 AM 46.2162 -44.4838 255° West  Level FlightAware Approximate
Fri 09:38:00 AM 46.1852 -44.6459 255° West  Level FlightAware Approximate
Fri 09:39:00 AM 46.1539 -44.8078 254° West  Level FlightAware Approximate
Fri 09:40:00 AM 46.1224 -44.9695 254° West  Level FlightAware Approximate
Fri 09:41:00 AM 46.0905 -45.1310 254° West  Level FlightAware Approximate
Fri 09:42:00 AM 46.0584 -45.2922 254° West  Level FlightAware Approximate
Fri 09:43:00 AM 46.0260 -45.4533 254° West  Level FlightAware Approximate
Fri 09:44:00 AM 45.9934 -45.6141 254° West  Level FlightAware Approximate
Fri 09:45:00 AM 45.9605 -45.7748 254° West  Level FlightAware Approximate
Fri 09:46:00 AM 45.9274 -45.9353 254° West  Level FlightAware Approximate
Fri 09:47:00 AM 45.8941 -46.0956 253° West  Level FlightAware Approximate
Fri 09:48:00 AM 45.8606 -46.2557 253° West  Level FlightAware Approximate
Fri 09:49:00 AM 45.8269 -46.4156 253° West  Level FlightAware Approximate
Fri 09:50:00 AM 45.7929 -46.5754 253° West  Level FlightAware Approximate
Fri 09:51:00 AM 45.7587 -46.7349 253° West  Level FlightAware Approximate
Fri 09:52:00 AM 45.7243 -46.8942 253° West  Level FlightAware Approximate
Fri 09:53:00 AM 45.6897 -47.0533 253° West  Level FlightAware Approximate
Fri 09:54:00 AM 45.6548 -47.2123 253° West  Level FlightAware Approximate
Fri 09:55:00 AM 45.6198 -47.3710 253° West  Level FlightAware Approximate
Fri 09:56:00 AM 45.5845 -47.5296 252° West  Level FlightAware Approximate
Fri 09:57:00 AM 45.5490 -47.6879 252° West  Level FlightAware Approximate
Fri 09:58:00 AM 45.5132 -47.8460 252° West  Level FlightAware Approximate
Fri 09:59:00 AM 45.4773 -48.0040 252° West  Level FlightAware Approximate
Fri 10:00:00 AM 45.4411 -48.1617 252° West  Level FlightAware Approximate
Fri 10:01:00 AM 45.4047 -48.3192 252° West  Level FlightAware Approximate
Fri 10:02:00 AM 45.3681 -48.4766 252° West  Level FlightAware Approximate
Fri 10:03:00 AM 45.3313 -48.6337 252° West  Level FlightAware Approximate
Fri 10:04:00 AM 45.2943 -48.7906 252° West  Level FlightAware Approximate
Fri 10:05:00 AM 45.2570 -48.9473 251° West  Level FlightAware Approximate
Fri 10:06:00 AM 45.2196 -49.1038 251° West  Level FlightAware Approximate
Fri 10:06:35 AM 44.9667 -50.4500 251° West 420 483 36,000  Level Gander Center
Fri 10:07:00 AM 45.1819 -49.2602 251° West  Level FlightAware Approximate
Fri 10:07:35 AM 44.9500 -50.6167 262° West 440 506 36,000  Level Gander Center
Fri 10:08:00 AM 45.1440 -49.4163 251° West  Level FlightAware Approximate
Fri 10:08:35 AM 44.9333 -50.7833 262° West 440 506 36,000  Level Gander Center
Fri 10:09:00 AM 45.1059 -49.5722 251° West  Level FlightAware Approximate
Fri 10:09:35 AM 44.9167 -50.9500 262° West 440 506 36,000  Level Gander Center
Fri 10:10:00 AM 45.0676 -49.7279 251° West  Level FlightAware Approximate
Fri 10:10:35 AM 44.9000 -51.1167 262° West 440 506 36,700  Level Gander Center
Fri 10:11:00 AM 45.0290 -49.8834 251° West  Level FlightAware Approximate
Fri 10:11:35 AM 44.9000 -51.2833 270° West 430 495 38,000  Level Gander Center
Fri 10:12:35 AM 44.8833 -51.4500 262° West 420 483 38,000  Level Gander Center
Fri 10:13:35 AM 44.8833 -51.6167 270° West 430 495 38,000  Level Gander Center
Fri 10:14:35 AM 44.8667 -51.8000 263° West 430 495 38,000  Level Gander Center
Fri 10:15:35 AM 44.8667 -51.9500 270° West 430 495 38,000  Level Gander Center
Fri 10:16:35 AM 44.8500 -52.1167 262° West 440 506 38,000  Level Gander Center
Fri 10:17:35 AM 44.8500 -52.2833 270° West 400 460 38,000  Level Gander Center
Fri 10:18:14 AM 44.8667 -52.4167 280° West 440 506 38,000  Level Moncton Center
Fri 10:18:35 AM 44.8500 -52.4500 235° Southwest 430 495 38,000  Level Gander Center
Fri 10:19:35 AM 44.8500 -52.6167 270° West 420 483 38,000  Level Gander Center
Fri 10:20:35 AM 44.8500 -52.7833 270° West 430 495 38,000  Level Gander Center
Fri 10:21:14 AM 44.8500 -52.8833 270° West 430 495 38,000  Level Moncton Center
Fri 10:22:14 AM 44.8333 -53.0500 262° West 430 495 38,000  Level Moncton Center
Fri 10:23:14 AM 44.8333 -53.2167 270° West 420 483 38,000  Level Moncton Center
Fri 10:23:33 AM 44.8333 -53.2833 270° West 430 495 38,000  Level Gander Center
Fri 10:24:14 AM 44.8333 -53.3833 270° West 420 483 38,000  Level Moncton Center
Fri 10:25:14 AM 44.8167 -53.5833 263° West 430 495 38,000  Level Moncton Center
Fri 10:26:14 AM 44.8167 -53.7167 270° West 420 483 38,000  Level Moncton Center
Fri 10:26:35 AM 44.8167 -53.7833 270° West 420 483 38,000  Level Gander Center
Fri 10:27:35 AM 44.8167 -53.9500 270° West 430 495 38,000  Level Gander Center
Fri 10:28:35 AM 44.8000 -54.1167 262° West 410 472 38,000  Level Gander Center
Fri 10:29:14 AM 44.7833 -54.2333 259° West 420 483 38,000  Level Moncton Center
Fri 10:30:14 AM 44.7833 -54.4000 270° West 430 495 38,000  Level Moncton Center
Fri 10:31:14 AM 44.7833 -54.5333 270° West 400 460 38,000  Level Moncton Center
Fri 10:31:35 AM 44.7833 -54.6167 270° West 400 460 38,000  Level Gander Center
Fri 10:32:35 AM 44.7667 -54.7833 262° West 410 472 38,000  Level Gander Center
Fri 10:33:14 AM 44.7667 -54.8667 270° West 420 483 38,000  Level Moncton Center
Fri 10:33:35 AM 44.7500 -54.9333 251° West 420 483 38,000  Level Gander Center
Fri 10:39:02 AM 44.7260 -55.8820 251° West 427 491 38,000  Level FlightAware ADS-B
Fri 10:39:42 AM 44.7200 -55.9760 265° West 427 491 38,000  Level FlightAware ADS-B
Fri 10:40:32 AM 44.7110 -56.1320 265° West 426 490 38,000  Level FlightAware ADS-B
Fri 10:41:12 AM 44.7060 -56.2260 266° West 426 490 38,000  Level FlightAware ADS-B
Fri 10:41:57 AM 44.6970 -56.3700 265° West 429 494 38,000  Level FlightAware ADS-B
Fri 10:42:52 AM 44.6870 -56.5230 265° West 429 494 38,000  Level FlightAware ADS-B
Fri 10:43:47 AM 44.6770 -56.6720 265° West 430 495 38,000  Level FlightAware ADS-B
Fri 10:44:27 AM 44.6700 -56.7900 265° West 433 498 38,000  Level FlightAware ADS-B
Fri 10:45:12 AM 44.6620 -56.9120 265° West 434 499 38,000  Level FlightAware ADS-B
Fri 10:46:02 AM 44.6520 -57.0540 264° West 434 499 38,000  Level FlightAware ADS-B
Fri 10:46:52 AM 44.6430 -57.1920 265° West 436 502 38,000  Level FlightAware ADS-B
Fri 10:47:27 AM 44.6370 -57.2870 265° West 436 502 38,000 -80 Level FlightAware ADS-B
Fri 10:48:07 AM 44.6280 -57.4070 264° West 436 502 37,900  Descending FlightAware ADS-B
Fri 10:48:57 AM 44.6180 -57.5490 264° West 436 502 38,000 67 Climbing FlightAware ADS-B
Fri 10:49:37 AM 44.6110 -57.6490 264° West 436 502 38,000  Level FlightAware ADS-B
Fri 10:50:22 AM 44.6000 -57.7900 264° West 438 504 38,000  Level FlightAware ADS-B
Fri 10:50:57 AM 44.5930 -57.8860 264° West 440 506 38,000  Level FlightAware ADS-B
Fri 10:51:42 AM 44.5830 -58.0170 264° West 441 507 38,000  Level FlightAware ADS-B
Fri 10:52:27 AM 44.5740 -58.1430 264° West 441 507 38,000  Level FlightAware ADS-B
Fri 10:53:07 AM 44.5650 -58.2550 264° West 441 507 38,000  Level FlightAware ADS-B
Fri 10:53:52 AM 44.5540 -58.3850 263° West 441 507 38,000  Level FlightAware ADS-B
Fri 10:54:32 AM 44.5450 -58.5000 264° West 440 506 38,000  Level FlightAware ADS-B
Fri 10:55:12 AM 44.5360 -58.6130 264° West 440 506 38,000  Level FlightAware ADS-B
Fri 10:55:57 AM 44.5260 -58.7370 264° West 439 505 38,000  Level FlightAware ADS-B
Fri 10:56:37 AM 44.5170 -58.8500 264° West 438 504 38,000  Level FlightAware ADS-B
Fri 10:57:17 AM 44.5070 -58.9630 263° West 437 503 38,000  Level FlightAware ADS-B
Fri 10:58:02 AM 44.4970 -59.0910 264° West 435 501 38,000  Level FlightAware ADS-B
Fri 10:58:42 AM 44.4870 -59.2040 263° West 433 498 38,000  Level FlightAware ADS-B
Fri 10:59:27 AM 44.4770 -59.3220 263° West 431 496 38,000  Level FlightAware ADS-B
Fri 11:00:07 AM 44.4670 -59.4350 263° West 430 495 38,000 -71 Level FlightAware ADS-B
Fri 11:00:52 AM 44.4560 -59.5620 263° West 426 490 37,900  Descending FlightAware ADS-B
Fri 11:01:32 AM 44.4460 -59.6700 263° West 423 487 38,000 75 Climbing FlightAware ADS-B
Fri 11:02:12 AM 44.4360 -59.7790 263° West 422 486 38,000  Level FlightAware ADS-B
Fri 11:02:57 AM 44.4260 -59.8970 263° West 421 484 38,000  Level FlightAware ADS-B
Fri 11:03:37 AM 44.4160 -60.0030 263° West 420 483 38,000  Level FlightAware ADS-B
Fri 11:04:22 AM 44.4050 -60.1250 263° West 418 481 38,000  Level FlightAware ADS-B
Fri 11:05:02 AM 44.3940 -60.2350 262° West 419 482 38,000  Level FlightAware ADS-B
Fri 11:05:42 AM 44.3850 -60.3380 263° West 420 483 38,000  Level FlightAware ADS-B
Fri 11:06:27 AM 44.3740 -60.4430 262° West 420 483 38,000  Level FlightAware ADS-B
Fri 11:07:07 AM 44.3650 -60.5350 262° West 420 483 38,000  Level FlightAware ADS-B
Fri 11:07:47 AM 44.3560 -60.6270 262° West 420 483 38,000  Level FlightAware ADS-B
Fri 11:08:27 AM 44.3460 -60.7180 261° West 420 483 38,000  Level FlightAware ADS-B
Fri 11:09:07 AM 44.3370 -60.8090 262° West 420 483 38,000  Level FlightAware ADS-B
Fri 11:09:57 AM 44.3260 -60.9240 262° West 420 483 38,000  Level FlightAware ADS-B
Fri 11:10:27 AM 44.3190 -60.9920 262° West 420 483 38,000  Level FlightAware ADS-B
Fri 11:11:07 AM 44.3100 -61.0840 262° West 420 483 38,000  Level FlightAware ADS-B
Fri 11:11:47 AM 44.3000 -61.1750 261° West 420 483 38,000  Level FlightAware ADS-B
Fri 11:12:27 AM 44.2910 -61.2670 262° West 420 483 38,000  Level FlightAware ADS-B
Fri 11:13:07 AM 44.2820 -61.3580 262° West 420 483 38,000  Level FlightAware ADS-B
Fri 11:13:47 AM 44.2730 -61.4490 262° West 420 483 38,000  Level FlightAware ADS-B
Fri 11:14:37 AM 44.2610 -61.5640 262° West 420 483 38,000  Level FlightAware ADS-B
Fri 11:15:17 AM 44.2520 -61.6550 262° West 420 483 38,000  Level FlightAware ADS-B
Fri 11:15:35 AM 44.2333 -61.9333 262° West 430 495 38,000  Level Gander Center
Fri 11:16:14 AM 44.2167 -62.0333 257° West 430 495 38,000  Level Moncton Center
Fri 11:17:14 AM 44.2000 -62.2000 262° West 430 495 38,000  Level Moncton Center
Fri 11:18:14 AM 44.1667 -62.3667 254° West 420 483 38,000  Level Moncton Center
Fri 11:19:14 AM 44.1500 -62.5333 262° West 420 483 38,000  Level Moncton Center
Fri 11:20:14 AM 44.1333 -62.6667 260° West 430 495 38,000  Level Moncton Center
Fri 11:21:14 AM 44.1167 -62.8667 263° West 430 495 38,000  Level Moncton Center
Fri 11:22:14 AM 44.1000 -63.0167 261° West 430 495 38,000  Level Moncton Center
Fri 11:23:14 AM 44.0833 -63.1833 262° West 430 495 38,000  Level Moncton Center
Fri 11:24:14 AM 44.0667 -63.3500 262° West 430 495 38,000  Level Moncton Center
Fri 11:24:35 AM 44.0500 -63.4167 251° West 430 495 38,000  Level Gander Center
Fri 11:25:35 AM 44.0167 -63.5667 253° West 430 495 38,000  Level Gander Center
Fri 11:31:22 AM 43.9140 -64.5470 253° West 439 505 38,000  Level FlightAware ADS-B
Fri 11:31:57 AM 43.9010 -64.6480 260° West 438 504 38,000  Level FlightAware ADS-B
Fri 11:32:47 AM 43.8830 -64.7850 260° West 441 507 38,000  Level FlightAware ADS-B
Fri 11:33:47 AM 43.8600 -64.9550 259° West 441 507 38,000  Level FlightAware ADS-B
Fri 11:34:22 AM 43.8470 -65.0510 259° West 442 509 38,000  Level FlightAware ADS-B
Fri 11:35:02 AM 43.8320 -65.1600 259° West 442 509 38,000  Level FlightAware ADS-B
Fri 11:36:17 AM 43.8030 -65.3690 259° West 444 511 38,000  Level FlightAware ADS-B
Fri 11:37:27 AM 43.7760 -65.5620 259° West 444 511 38,000  Level FlightAware ADS-B
Fri 11:38:02 AM 43.7620 -65.6620 259° West 442 509 38,000  Level FlightAware ADS-B
Fri 11:38:52 AM 43.7420 -65.8000 259° West 440 506 38,000  Level FlightAware ADS-B
Fri 11:39:47 AM 43.7200 -65.9510 259° West 440 506 38,000  Level FlightAware ADS-B
Fri 11:40:32 AM 43.7020 -66.0750 259° West 438 504 38,000  Level FlightAware ADS-B
Fri 11:41:12 AM 43.6860 -66.1850 259° West 438 504 38,000  Level FlightAware ADS-B
Fri 11:41:57 AM 43.6670 -66.3090 258° West 438 504 38,000  Level FlightAware ADS-B
Fri 11:42:37 AM 43.6510 -66.4200 259° West 439 505 38,000  Level FlightAware ADS-B
Fri 11:43:17 AM 43.6340 -66.5290 258° West 440 506 38,000  Level FlightAware ADS-B
Fri 11:44:02 AM 43.6150 -66.6560 258° West 440 506 38,000  Level FlightAware ADS-B
Fri 11:44:42 AM 43.5980 -66.7620 258° West 439 505 38,000  Level FlightAware ADS-B
Fri 11:45:22 AM 43.5810 -66.8710 258° West 439 505 38,000  Level FlightAware ADS-B
Fri 11:46:07 AM 43.5610 -66.9940 257° West 438 504 38,000  Level FlightAware ADS-B
Fri 11:46:47 AM 43.5330 -67.1000 250° West 435 501 38,000  Level FlightAware ADS-B
Fri 11:47:32 AM 43.5000 -67.2190 249° West 437 503 38,000  Level FlightAware ADS-B
Fri 11:48:12 AM 43.4710 -67.3200 248° West 437 503 38,000  Level FlightAware ADS-B
Fri 11:48:57 AM 43.4380 -67.4360 249° West 432 497 38,000  Level FlightAware ADS-B
Fri 11:49:37 AM 43.4080 -67.5400 248° West 431 496 38,000  Level FlightAware ADS-B
Fri 11:50:17 AM 43.3790 -67.6410 248° West 435 501 38,000  Level FlightAware ADS-B
Fri 11:51:02 AM 43.3460 -67.7570 249° West 434 499 38,000  Level FlightAware ADS-B
Fri 11:51:42 AM 43.3200 -67.8470 248° West 434 499 38,000  Level FlightAware ADS-B
Fri 11:52:32 AM 43.2820 -67.9750 248° West 436 502 38,000  Level FlightAware ADS-B
Fri 11:55:27 AM 43.1480 -68.4320 248° West 441 507 38,000  Level FlightAware ADS-B
Fri 11:56:07 AM 43.1140 -68.5440 247° West 442 509 38,000  Level FlightAware ADS-B
Fri 11:56:52 AM 43.0810 -68.6570 248° West 442 509 38,000  Level FlightAware ADS-B
Fri 11:57:27 AM 43.0550 -68.7430 248° West 442 509 38,000  Level FlightAware ADS-B
Fri 11:58:07 AM 43.0290 -68.8310 248° West 442 509 38,000  Level FlightAware ADS-B
Fri 11:58:57 AM 42.9840 -68.9790 247° West 447 514 38,000  Level FlightAware ADS-B
Fri 11:59:37 AM 42.9490 -69.0920 247° West 450 518 38,000  Level FlightAware ADS-B
Fri 12:00:22 PM 42.9130 -69.2100 247° West 455 524 38,000  Level FlightAware ADS-B
Fri 12:01:02 PM 42.8800 -69.3160 247° West 456 525 38,000  Level FlightAware ADS-B
Fri 12:01:42 PM 42.8470 -69.4250 248° West 456 525 38,000  Level FlightAware ADS-B
Fri 12:02:27 PM 42.8100 -69.5430 247° West 454 522 38,000  Level FlightAware ADS-B
Fri 12:03:07 PM 42.7780 -69.6480 247° West 453 521 38,000  Level FlightAware ADS-B
Fri 12:03:52 PM 42.7410 -69.7650 247° West 450 518 38,000  Level FlightAware ADS-B
Fri 12:04:32 PM 42.7090 -69.8680 247° West 448 516 38,000 -353 Level FlightAware ADS-B
Fri 12:05:17 PM 42.6730 -69.9830 247° West 442 509 37,500 -1,694 Descending FlightAware ADS-B
Fri 12:05:57 PM 42.6400 -70.0850 246° West 442 509 35,600 -3,000 Descending FlightAware ADS-B
Fri 12:06:37 PM 42.6070 -70.1890 247° West 444 511 33,500 -3,247 Descending FlightAware ADS-B
Fri 12:07:22 PM 42.5710 -70.3030 247° West 450 518 31,000 -3,035 Descending FlightAware ADS-B
Fri 12:08:02 PM 42.5370 -70.4070 246° West 443 510 29,200 -2,118 Descending FlightAware ADS-B
Fri 12:08:47 PM 42.5010 -70.5190 246° West 426 490 28,000 -847 Descending FlightAware ADS-B
Fri 12:09:27 PM 42.4690 -70.6160 246° West 430 495 28,000  Level FlightAware ADS-B
Fri 12:10:07 PM 42.4360 -70.7180 246° West 435 501 28,000 -212 Level FlightAware ADS-B
Fri 12:10:52 PM 42.4010 -70.8270 247° West 424 488 27,700 -1,271 Descending FlightAware ADS-B
Fri 12:11:32 PM 42.3690 -70.9250 246° West 412 474 26,200 -2,325 Descending FlightAware ADS-B
Fri 12:12:12 PM 42.3400 -71.0190 247° West 403 464 24,600 -1,650 Descending FlightAware ADS-B
Fri 12:12:52 PM 42.3160 -71.1150 251° West 396 456 24,000 -988 Descending FlightAware ADS-B
Fri 12:13:37 PM 42.2920 -71.2160 252° West 396 456 23,200 -1,000 Descending FlightAware ADS-B
Fri 12:14:22 PM 42.2670 -71.3220 252° West 395 455 22,500 -756 Descending FlightAware ADS-B
Fri 12:15:52 PM 42.2150 -71.5370 252° West 395 455 21,500 -692 Descending FlightAware ADS-B
Fri 12:16:32 PM 42.1910 -71.6360 252° West 391 450 21,000 -650 Descending FlightAware ADS-B
Fri 12:17:52 PM 42.1460 -71.8200 252° West 388 447 20,200 -626 Descending FlightAware ADS-B
Fri 12:18:27 PM 42.1260 -71.8990 251° West 385 443 19,800 -635 Descending FlightAware ADS-B
Fri 12:19:17 PM 42.1010 -72.0040 252° West 383 441 19,300 -568 Descending FlightAware ADS-B
Fri 12:20:02 PM 42.0760 -72.1040 251° West 385 443 18,900 -442 Descending FlightAware ADS-B
Fri 12:20:52 PM 42.0470 -72.2160 251° West 383 441 18,600 -514 Descending FlightAware ADS-B
Fri 12:22:22 PM 42.0140 -72.3480 251° West 373 429 17,700 -415 Descending FlightAware ADS-B
Fri 12:23:02 PM 41.9950 -72.4230 251° West 373 429 17,700  Level FlightAware ADS-B
Fri 12:23:42 PM 41.9760 -72.4980 251° West 373 429 17,700  Level FlightAware ADS-B
Fri 12:24:22 PM 41.9570 -72.5720 251° West 373 429 17,700  Level FlightAware ADS-B
Fri 12:25:02 PM 41.9380 -72.6470 251° West 373 429 17,700  Level FlightAware ADS-B
Fri 12:25:42 PM 41.9190 -72.7220 251° West 373 429 17,700 -474 Level FlightAware ADS-B
Fri 12:28:37 PM 41.7990 -73.2290 253° West 362 417 16,000 -464 Descending FlightAware ADS-B
Fri 12:29:22 PM 41.7780 -73.3160 252° West 361 415 16,000  Level FlightAware ADS-B
Fri 12:30:02 PM 41.7600 -73.3880 251° West 361 415 16,000  Level FlightAware ADS-B
Fri 12:30:42 PM 41.7430 -73.4610 253° West 361 415 16,000 -60 Level FlightAware ADS-B
Fri 12:31:42 PM 41.7050 -73.6110 251° West 360 414 15,900 -900 Descending FlightAware ADS-B
Fri 12:32:22 PM 41.6840 -73.7030 253° West 350 403 14,500 -1,553 Descending FlightAware ADS-B
Fri 12:33:07 PM 41.6620 -73.7900 251° West 345 397 13,700 -1,129 Descending FlightAware ADS-B
Fri 12:33:47 PM 41.6410 -73.8750 252° West 338 389 12,900 -1,200 Descending FlightAware ADS-B
Fri 12:34:27 PM 41.6230 -73.9520 253° West 337 388 12,100 -1,271 Descending FlightAware ADS-B
Fri 12:35:12 PM 41.6030 -74.0380 253° West 339 390 11,100 -1,350 Descending FlightAware ADS-B
Fri 12:35:47 PM 41.5790 -74.1100 246° West 337 388 10,300 -825 Descending FlightAware ADS-B
Fri 12:36:32 PM 41.5410 -74.1710 230° Southwest 324 373 10,000 -212 Descending FlightAware ADS-B
Fri 12:37:12 PM 41.5080 -74.2230 230° Southwest 324 373 10,000  Level FlightAware ADS-B
Fri 12:37:52 PM 41.4760 -74.2750 231° Southwest 324 373 10,000 -693 Level FlightAware ADS-B
Fri 12:43:07 PM 41.1270 -74.5400 210° Southwest 264 304 5,900 -724 Descending FlightAware ADS-B
Fri 12:43:32 PM 41.0990 -74.5510 196° South 264 304 5,900 -480 Level FlightAware ADS-B
Fri 12:45:12 PM 41.0190 -74.4700 143° Southeast 235 270 4,900 -435 Descending FlightAware ADS-B
Fri 12:45:36 PM 41.0047 -74.4394 122° Southeast 235 270 5,000 90 Climbing FlightAware ADS-B
Fri 12:46:19 PM 40.9784 -74.3846 122° Southeast 243 280 5,000  Level FlightAware ADS-B
Fri 12:46:43 PM 40.9637 -74.3546 123° Southeast 241 277 5,000 -240 Level FlightAware ADS-B
Fri 12:47:34 PM 40.9339 -74.2929 123° Southeast 237 273 4,700 -674 Descending FlightAware ADS-B
Fri 12:48:12 PM 40.9140 -74.2510 122° Southeast 229 264 4,000 -857 Descending FlightAware ADS-B
Fri 12:48:23 PM 40.9057 -74.2348 124° Southeast 228 262 4,000 -102 Level FlightAware ADS-B
Fri 12:49:11 PM 40.8780 -74.1772 122° Southeast 233 268 3,900 -557 Descending FlightAware ADS-B
Fri 12:50:00 PM 40.8447 -74.1253 130° Southeast 232 267 3,100 -896 Descending FlightAware ADS-B
Fri 12:50:18 PM 40.8301 -74.1090 140° Southeast 226 260 2,900 -250 Descending FlightAware ADS-B
Fri 12:50:24 PM 40.8240 -74.1063 161° South 233 268 3,000 545 Climbing FlightAware ADS-B
Fri 12:50:29 PM 40.8186 -74.1055 174° South 232 267 3,000  Level FlightAware ADS-B
Fri 12:50:33 PM 40.8144 -74.1059 184° South 231 266 3,000  Level FlightAware ADS-B
Fri 12:50:38 PM 40.8091 -74.1075 193° South 230 265 3,000  Level FlightAware ADS-B
Fri 12:50:42 PM 40.8054 -74.1099 206° Southwest 226 260 3,000  Level FlightAware ADS-B
Fri 12:50:47 PM 40.8013 -74.1134 213° Southwest 221 254 3,000 -960 Level FlightAware ADS-B
Fri 12:51:07 PM 40.7854 -74.1280 215° Southwest 220 253 2,600 -1,455 Descending FlightAware ADS-B
Fri 12:51:20 PM 40.7751 -74.1366 212° Southwest 198 228 2,200 -2,077 Descending FlightAware ADS-B
Fri 12:51:33 PM 40.7651 -74.1439 209° Southwest 193 222 1,700 -1,421 Descending FlightAware ADS-B
Fri 12:51:58 PM 40.7455 -74.1562 205° Southwest 184 212 1,300 -900 Descending FlightAware ADS-B
Fri 12:52:13 PM 40.7359 -74.1624 206° Southwest 147 169 1,100 -750 Descending FlightAware ADS-B
Fri 12:52:22 PM 40.7306 -74.1655 204° Southwest 141 162 1,000 -1,034 Descending FlightAware ADS-B
Fri 12:52:42 PM 40.7181 -74.1701 196° South 141 162 600 -1,200 Descending FlightAware ADS-B

Login

Don't have an account? Register now (free) for customized features, flight alerts, and more!